sensor_id;sensor_type;location;lat;lon;timestamp;P1;P2;P0
65360;PMS5003;51958;55.018;73.536;2024-02-04T02:02:02;10.00;8.00;3.00
65360;PMS5003;51958;55.018;73.536;2024-02-04T02:08:04;6.00;4.00;1.00
65360;PMS5003;51958;55.018;73.536;2024-02-04T02:11:08;4.00;4.00;1.00
65360;PMS5003;51958;55.018;73.536;2024-02-04T02:14:13;4.50;4.00;2.00
65360;PMS5003;51958;55.018;73.536;2024-02-04T02:17:16;5.00;4.00;1.00
65360;PMS5003;51958;55.018;73.536;2024-02-04T02:23:53;7.00;6.00;2.00
65360;PMS5003;51958;55.018;73.536;2024-02-04T02:29:59;5.00;4.00;2.00
65360;PMS5003;51958;55.018;73.536;2024-02-04T02:33:00;5.00;4.00;2.00
65360;PMS5003;51958;55.018;73.536;2024-02-04T02:39:09;4.00;4.00;2.00
65360;PMS5003;51958;55.018;73.536;2024-02-04T02:42:14;4.00;3.00;0.00
65360;PMS5003;51958;55.018;73.536;2024-02-04T02:45:16;5.00;4.00;2.00
65360;PMS5003;51958;55.018;73.536;2024-02-04T02:51:21;6.00;5.00;2.00
65360;PMS5003;51958;55.018;73.536;2024-02-04T02:54:22;5.50;4.00;2.00
65360;PMS5003;51958;55.018;73.536;2024-02-04T02:57:23;5.67;4.00;1.00
65360;PMS5003;51958;55.018;73.536;2024-02-04T03:03:25;4.00;4.00;0.00
65360;PMS5003;51958;55.018;73.536;2024-02-04T03:06:27;3.00;2.00;0.00
65360;PMS5003;51958;55.018;73.536;2024-02-04T03:09:28;3.00;3.00;0.00
65360;PMS5003;51958;55.018;73.536;2024-02-04T03:12:29;3.00;3.00;1.00
65360;PMS5003;51958;55.018;73.536;2024-02-04T03:15:31;4.00;4.00;1.33
65360;PMS5003;51958;55.018;73.536;2024-02-04T03:18:32;3.00;3.00;2.00
65360;PMS5003;51958;55.018;73.536;2024-02-04T03:21:33;4.00;4.00;1.00
65360;PMS5003;51958;55.018;73.536;2024-02-04T03:24:34;6.00;5.00;1.00
65360;PMS5003;51958;55.018;73.536;2024-02-04T03:27:35;3.00;2.00;1.00
65360;PMS5003;51958;55.018;73.536;2024-02-04T03:30:37;2.00;2.00;0.00
65360;PMS5003;51958;55.018;73.536;2024-02-04T03:33:38;1.00;1.00;0.00
65360;PMS5003;51958;55.018;73.536;2024-02-04T03:36:39;2.00;2.00;0.00
65360;PMS5003;51958;55.018;73.536;2024-02-04T03:39:40;3.00;3.00;0.00
65360;PMS5003;51958;55.018;73.536;2024-02-04T03:42:41;3.67;3.00;0.00
65360;PMS5003;51958;55.018;73.536;2024-02-04T03:45:43;4.00;2.00;1.00
65360;PMS5003;51958;55.018;73.536;2024-02-04T03:48:47;3.00;2.67;2.00
65360;PMS5003;51958;55.018;73.536;2024-02-04T03:51:49;4.00;3.00;2.00
65360;PMS5003;51958;55.018;73.536;2024-02-04T03:54:50;4.00;2.00;1.00
65360;PMS5003;51958;55.018;73.536;2024-02-04T03:57:51;2.00;2.00;0.00
65360;PMS5003;51958;55.018;73.536;2024-02-04T04:00:52;3.00;2.00;0.00
65360;PMS5003;51958;55.018;73.536;2024-02-04T04:03:54;3.00;2.00;1.00
65360;PMS5003;51958;55.018;73.536;2024-02-04T04:06:55;16.00;12.00;6.33
65360;PMS5003;51958;55.018;73.536;2024-02-04T04:09:56;23.50;18.00;9.00
65360;PMS5003;51958;55.018;73.536;2024-02-04T04:13:00;24.00;19.00;10.00
65360;PMS5003;51958;55.018;73.536;2024-02-04T04:16:01;16.00;12.50;5.50
65360;PMS5003;51958;55.018;73.536;2024-02-04T04:19:02;12.00;9.00;4.00
65360;PMS5003;51958;55.018;73.536;2024-02-04T04:22:03;13.00;11.00;4.00
65360;PMS5003;51958;55.018;73.536;2024-02-04T04:25:05;11.00;8.00;3.00
65360;PMS5003;51958;55.018;73.536;2024-02-04T04:28:06;10.67;7.67;2.67
65360;PMS5003;51958;55.018;73.536;2024-02-04T04:31:07;10.00;8.00;4.00
65360;PMS5003;51958;55.018;73.536;2024-02-04T04:34:08;10.00;8.00;4.00
65360;PMS5003;51958;55.018;73.536;2024-02-04T04:37:09;11.50;9.00;4.00
65360;PMS5003;51958;55.018;73.536;2024-02-04T04:40:11;15.00;12.00;6.00
65360;PMS5003;51958;55.018;73.536;2024-02-04T04:43:13;13.00;12.00;4.00
65360;PMS5003;51958;55.018;73.536;2024-02-04T04:46:15;13.50;13.00;5.00
65360;PMS5003;51958;55.018;73.536;2024-02-04T04:49:16;14.00;12.00;5.00
65360;PMS5003;51958;55.018;73.536;2024-02-04T04:52:17;14.50;13.50;5.00
65360;PMS5003;51958;55.018;73.536;2024-02-04T04:55:19;14.00;12.00;4.00
65360;PMS5003;51958;55.018;73.536;2024-02-04T04:58:20;15.00;12.00;4.00
65360;PMS5003;51958;55.018;73.536;2024-02-04T05:01:21;13.67;10.00;3.00
65360;PMS5003;51958;55.018;73.536;2024-02-04T05:04:23;12.33;10.00;4.00
65360;PMS5003;51958;55.018;73.536;2024-02-04T05:07:29;11.00;9.00;3.00
65360;PMS5003;51958;55.018;73.536;2024-02-04T05:10:31;8.67;6.00;3.00
65360;PMS5003;51958;55.018;73.536;2024-02-04T05:13:32;6.00;5.00;2.00
65360;PMS5003;51958;55.018;73.536;2024-02-04T05:16:34;6.00;5.00;2.00
65360;PMS5003;51958;55.018;73.536;2024-02-04T05:19:36;6.00;5.00;2.00
65360;PMS5003;51958;55.018;73.536;2024-02-04T05:22:37;8.00;6.00;2.50
65360;PMS5003;51958;55.018;73.536;2024-02-04T05:25:38;6.00;5.00;2.00
65360;PMS5003;51958;55.018;73.536;2024-02-04T05:28:40;6.33;5.33;2.00
65360;PMS5003;51958;55.018;73.536;2024-02-04T05:31:42;7.00;6.00;2.00
65360;PMS5003;51958;55.018;73.536;2024-02-04T05:34:44;6.67;6.00;2.00
65360;PMS5003;51958;55.018;73.536;2024-02-04T05:37:47;8.33;6.67;2.00
65360;PMS5003;51958;55.018;73.536;2024-02-04T05:40:48;9.33;8.33;2.33
65360;PMS5003;51958;55.018;73.536;2024-02-04T05:43:49;12.67;11.67;5.33
65360;PMS5003;51958;55.018;73.536;2024-02-04T05:46:50;14.00;14.00;3.33
65360;PMS5003;51958;55.018;73.536;2024-02-04T05:49:51;11.33;11.00;4.00
65360;PMS5003;51958;55.018;73.536;2024-02-04T05:52:52;15.00;13.67;6.67
65360;PMS5003;51958;55.018;73.536;2024-02-04T05:55:54;15.00;14.00;6.00
65360;PMS5003;51958;55.018;73.536;2024-02-04T05:58:55;15.00;12.00;5.00
65360;PMS5003;51958;55.018;73.536;2024-02-04T06:01:57;12.00;9.00;4.00
65360;PMS5003;51958;55.018;73.536;2024-02-04T06:04:58;13.00;10.00;5.00
65360;PMS5003;51958;55.018;73.536;2024-02-04T06:07:59;12.00;9.00;4.00
65360;PMS5003;51958;55.018;73.536;2024-02-04T06:11:00;14.00;12.00;6.00
65360;PMS5003;51958;55.018;73.536;2024-02-04T06:14:01;14.00;12.00;5.00
65360;PMS5003;51958;55.018;73.536;2024-02-04T06:17:03;9.00;8.00;3.00
65360;PMS5003;51958;55.018;73.536;2024-02-04T06:20:06;8.00;7.00;3.00
65360;PMS5003;51958;55.018;73.536;2024-02-04T06:23:08;7.00;6.00;3.00
65360;PMS5003;51958;55.018;73.536;2024-02-04T06:26:12;9.00;7.00;3.00
65360;PMS5003;51958;55.018;73.536;2024-02-04T06:29:13;11.67;9.33;3.00
65360;PMS5003;51958;55.018;73.536;2024-02-04T06:32:14;12.00;9.00;3.00
65360;PMS5003;51958;55.018;73.536;2024-02-04T06:35:16;12.00;7.00;3.00
65360;PMS5003;51958;55.018;73.536;2024-02-04T06:38:18;12.00;8.00;3.00
65360;PMS5003;51958;55.018;73.536;2024-02-04T06:41:21;14.00;10.00;5.00
65360;PMS5003;51958;55.018;73.536;2024-02-04T06:44:24;15.50;11.00;4.50
65360;PMS5003;51958;55.018;73.536;2024-02-04T06:47:25;15.00;10.00;3.50
65360;PMS5003;51958;55.018;73.536;2024-02-04T06:50:27;15.00;11.00;4.00
65360;PMS5003;51958;55.018;73.536;2024-02-04T06:53:29;16.00;12.00;5.00
65360;PMS5003;51958;55.018;73.536;2024-02-04T06:56:32;16.00;13.00;4.00
65360;PMS5003;51958;55.018;73.536;2024-02-04T06:59:34;13.50;13.00;4.00
65360;PMS5003;51958;55.018;73.536;2024-02-04T07:02:35;15.00;13.00;5.00
65360;PMS5003;51958;55.018;73.536;2024-02-04T07:05:37;13.00;12.00;4.00
65360;PMS5003;51958;55.018;73.536;2024-02-04T07:08:39;12.00;11.00;3.00
65360;PMS5003;51958;55.018;73.536;2024-02-04T07:11:41;14.33;13.00;4.00
65360;PMS5003;51958;55.018;73.536;2024-02-04T07:14:42;15.00;13.00;3.00
65360;PMS5003;51958;55.018;73.536;2024-02-04T07:17:43;15.00;14.00;6.00
65360;PMS5003;51958;55.018;73.536;2024-02-04T07:20:45;16.33;15.00;6.00
65360;PMS5003;51958;55.018;73.536;2024-02-04T07:23:48;17.00;16.33;6.00
65360;PMS5003;51958;55.018;73.536;2024-02-04T07:26:51;16.33;16.00;5.00
65360;PMS5003;51958;55.018;73.536;2024-02-04T07:29:52;16.33;14.33;6.00
65360;PMS5003;51958;55.018;73.536;2024-02-04T07:32:56;13.00;13.00;4.00
65360;PMS5003;51958;55.018;73.536;2024-02-04T07:35:57;16.33;13.00;5.33
65360;PMS5003;51958;55.018;73.536;2024-02-04T07:38:58;14.00;13.00;5.67
65360;PMS5003;51958;55.018;73.536;2024-02-04T07:42:01;14.67;12.67;6.00
65360;PMS5003;51958;55.018;73.536;2024-02-04T07:45:03;15.00;13.00;4.00
65360;PMS5003;51958;55.018;73.536;2024-02-04T07:48:09;14.00;13.33;4.00
65360;PMS5003;51958;55.018;73.536;2024-02-04T07:51:11;17.00;13.33;4.00
65360;PMS5003;51958;55.018;73.536;2024-02-04T07:54:12;17.00;15.00;5.00
65360;PMS5003;51958;55.018;73.536;2024-02-04T07:57:15;17.00;13.33;6.00
65360;PMS5003;51958;55.018;73.536;2024-02-04T08:00:18;16.00;14.00;6.00
65360;PMS5003;51958;55.018;73.536;2024-02-04T08:03:19;14.00;14.00;6.00
65360;PMS5003;51958;55.018;73.536;2024-02-04T08:06:20;14.00;13.00;4.00
65360;PMS5003;51958;55.018;73.536;2024-02-04T08:09:22;15.67;14.00;5.33
65360;PMS5003;51958;55.018;73.536;2024-02-04T08:12:23;18.00;15.00;7.00
65360;PMS5003;51958;55.018;73.536;2024-02-04T08:15:24;17.67;15.00;6.00
65360;PMS5003;51958;55.018;73.536;2024-02-04T08:18:25;17.33;14.00;5.00
65360;PMS5003;51958;55.018;73.536;2024-02-04T08:21:26;17.33;15.00;6.33
65360;PMS5003;51958;55.018;73.536;2024-02-04T08:24:28;17.33;15.33;7.00
65360;PMS5003;51958;55.018;73.536;2024-02-04T08:27:30;17.00;15.00;4.00
65360;PMS5003;51958;55.018;73.536;2024-02-04T08:30:31;17.00;13.00;5.00
65360;PMS5003;51958;55.018;73.536;2024-02-04T08:33:32;17.00;13.33;6.00
65360;PMS5003;51958;55.018;73.536;2024-02-04T08:36:33;17.00;13.33;5.00
65360;PMS5003;51958;55.018;73.536;2024-02-04T08:39:35;16.00;13.33;4.33
65360;PMS5003;51958;55.018;73.536;2024-02-04T08:42:36;16.00;14.00;6.00
65360;PMS5003;51958;55.018;73.536;2024-02-04T08:45:37;17.00;15.00;6.00
65360;PMS5003;51958;55.018;73.536;2024-02-04T08:48:38;16.00;14.00;6.00
65360;PMS5003;51958;55.018;73.536;2024-02-04T08:51:40;16.00;14.00;6.00
65360;PMS5003;51958;55.018;73.536;2024-02-04T08:54:42;16.00;14.00;6.33
65360;PMS5003;51958;55.018;73.536;2024-02-04T08:57:43;16.00;14.67;6.00
65360;PMS5003;51958;55.018;73.536;2024-02-04T09:00:45;15.00;14.00;6.00
65360;PMS5003;51958;55.018;73.536;2024-02-04T09:03:47;16.00;14.00;5.33
65360;PMS5003;51958;55.018;73.536;2024-02-04T09:06:48;16.33;14.00;6.00
65360;PMS5003;51958;55.018;73.536;2024-02-04T09:09:49;18.33;16.33;7.00
65360;PMS5003;51958;55.018;73.536;2024-02-04T09:12:50;17.00;15.00;6.33
65360;PMS5003;51958;55.018;73.536;2024-02-04T09:15:53;16.33;15.00;6.00
65360;PMS5003;51958;55.018;73.536;2024-02-04T09:18:54;17.00;17.00;8.00
65360;PMS5003;51958;55.018;73.536;2024-02-04T09:21:56;15.67;15.00;6.00
65360;PMS5003;51958;55.018;73.536;2024-02-04T09:24:57;15.00;13.33;6.00
65360;PMS5003;51958;55.018;73.536;2024-02-04T09:27:58;19.67;14.67;6.00
65360;PMS5003;51958;55.018;73.536;2024-02-04T09:31:00;17.00;13.33;5.00
65360;PMS5003;51958;55.018;73.536;2024-02-04T09:34:01;17.00;14.00;6.00
65360;PMS5003;51958;55.018;73.536;2024-02-04T09:37:03;19.00;16.00;6.00
65360;PMS5003;51958;55.018;73.536;2024-02-04T09:40:04;19.33;16.00;6.33
65360;PMS5003;51958;55.018;73.536;2024-02-04T09:43:05;21.33;18.00;9.00
65360;PMS5003;51958;55.018;73.536;2024-02-04T09:46:07;19.00;17.67;7.00
65360;PMS5003;51958;55.018;73.536;2024-02-04T09:49:08;16.00;14.00;6.00
65360;PMS5003;51958;55.018;73.536;2024-02-04T09:52:09;16.00;14.00;5.00
65360;PMS5003;51958;55.018;73.536;2024-02-04T09:55:12;13.00;11.33;3.00
65360;PMS5003;51958;55.018;73.536;2024-02-04T09:58:16;12.67;10.00;3.00
65360;PMS5003;51958;55.018;73.536;2024-02-04T10:01:17;11.00;9.00;3.00
65360;PMS5003;51958;55.018;73.536;2024-02-04T10:04:19;13.00;9.00;4.00
65360;PMS5003;51958;55.018;73.536;2024-02-04T10:07:20;10.00;6.00;3.00
65360;PMS5003;51958;55.018;73.536;2024-02-04T10:10:21;9.00;5.00;3.00
65360;PMS5003;51958;55.018;73.536;2024-02-04T10:13:23;9.00;8.00;4.00
65360;PMS5003;51958;55.018;73.536;2024-02-04T10:16:25;12.00;9.00;3.00
65360;PMS5003;51958;55.018;73.536;2024-02-04T10:19:26;13.00;9.00;4.00
65360;PMS5003;51958;55.018;73.536;2024-02-04T10:22:28;13.00;9.00;4.00
65360;PMS5003;51958;55.018;73.536;2024-02-04T10:25:30;14.00;9.33;4.00
65360;PMS5003;51958;55.018;73.536;2024-02-04T10:28:32;13.00;6.67;3.00
65360;PMS5003;51958;55.018;73.536;2024-02-04T10:31:33;8.33;5.00;2.67
65360;PMS5003;51958;55.018;73.536;2024-02-04T10:34:37;4.00;4.00;1.00
65360;PMS5003;51958;55.018;73.536;2024-02-04T10:37:39;6.00;5.50;2.00
65360;PMS5003;51958;55.018;73.536;2024-02-04T10:40:40;4.00;3.00;0.00
65360;PMS5003;51958;55.018;73.536;2024-02-04T10:43:42;7.50;6.00;2.00
65360;PMS5003;51958;55.018;73.536;2024-02-04T10:46:45;6.00;6.00;2.00
65360;PMS5003;51958;55.018;73.536;2024-02-04T10:49:49;4.50;3.00;1.00
65360;PMS5003;51958;55.018;73.536;2024-02-04T10:52:51;4.00;2.50;1.00
65360;PMS5003;51958;55.018;73.536;2024-02-04T10:55:53;8.00;5.00;2.00
65360;PMS5003;51958;55.018;73.536;2024-02-04T10:59:00;7.33;5.33;2.00
65360;PMS5003;51958;55.018;73.536;2024-02-04T11:02:07;8.00;5.33;2.00
65360;PMS5003;51958;55.018;73.536;2024-02-04T11:05:09;6.67;5.00;2.00
65360;PMS5003;51958;55.018;73.536;2024-02-04T11:08:10;7.00;5.67;2.00
65360;PMS5003;51958;55.018;73.536;2024-02-04T11:11:13;5.00;4.00;1.00
65360;PMS5003;51958;55.018;73.536;2024-02-04T11:14:15;5.00;5.00;2.00
65360;PMS5003;51958;55.018;73.536;2024-02-04T11:17:32;5.00;5.00;2.00
65360;PMS5003;51958;55.018;73.536;2024-02-04T11:27:15;7.00;5.00;2.00
65360;PMS5003;51958;55.018;73.536;2024-02-04T11:30:17;5.00;5.00;2.00
65360;PMS5003;51958;55.018;73.536;2024-02-04T11:33:18;5.00;5.00;2.00
65360;PMS5003;51958;55.018;73.536;2024-02-04T11:36:24;4.00;3.00;2.00
65360;PMS5003;51958;55.018;73.536;2024-02-04T11:39:26;4.00;3.50;2.00
65360;PMS5003;51958;55.018;73.536;2024-02-04T11:42:34;8.00;6.00;2.00
65360;PMS5003;51958;55.018;73.536;2024-02-04T11:45:42;7.50;5.00;2.00
65360;PMS5003;51958;55.018;73.536;2024-02-04T11:48:51;6.50;4.00;2.00
65360;PMS5003;51958;55.018;73.536;2024-02-04T11:51:54;4.00;3.50;2.00
65360;PMS5003;51958;55.018;73.536;2024-02-04T11:54:56;5.00;5.00;2.50
65360;PMS5003;51958;55.018;73.536;2024-02-04T11:57:59;6.00;5.00;2.00
65360;PMS5003;51958;55.018;73.536;2024-02-04T12:01:01;5.00;5.00;2.00
65360;PMS5003;51958;55.018;73.536;2024-02-04T12:04:12;5.00;5.00;2.00
65360;PMS5003;51958;55.018;73.536;2024-02-04T12:07:13;5.00;4.00;2.00
65360;PMS5003;51958;55.018;73.536;2024-02-04T12:10:15;5.00;5.00;2.00
65360;PMS5003;51958;55.018;73.536;2024-02-04T12:13:16;8.00;5.00;2.00
65360;PMS5003;51958;55.018;73.536;2024-02-04T12:16:39;5.00;4.33;1.00
65360;PMS5003;51958;55.018;73.536;2024-02-04T12:19:42;4.00;3.00;2.00
65360;PMS5003;51958;55.018;73.536;2024-02-04T12:22:43;2.67;2.00;0.00
65360;PMS5003;51958;55.018;73.536;2024-02-04T12:25:45;3.00;3.00;0.00
65360;PMS5003;51958;55.018;73.536;2024-02-04T12:28:48;3.00;3.00;0.00
65360;PMS5003;51958;55.018;73.536;2024-02-04T12:31:59;2.67;2.00;0.00
65360;PMS5003;51958;55.018;73.536;2024-02-04T12:35:04;2.00;2.00;0.00
65360;PMS5003;51958;55.018;73.536;2024-02-04T12:38:05;3.00;2.00;0.00
65360;PMS5003;51958;55.018;73.536;2024-02-04T12:41:08;3.00;2.00;0.33
65360;PMS5003;51958;55.018;73.536;2024-02-04T12:44:17;2.00;2.00;1.00
65360;PMS5003;51958;55.018;73.536;2024-02-04T12:47:33;2.67;2.00;0.00
65360;PMS5003;51958;55.018;73.536;2024-02-04T12:50:37;6.00;4.50;2.00
65360;PMS5003;51958;55.018;73.536;2024-02-04T12:53:38;6.00;4.50;2.00
65360;PMS5003;51958;55.018;73.536;2024-02-04T12:56:49;4.00;1.00;0.00
65360;PMS5003;51958;55.018;73.536;2024-02-04T13:00:12;3.50;2.00;0.00
65360;PMS5003;51958;55.018;73.536;2024-02-04T13:03:15;4.00;3.00;0.00
65360;PMS5003;51958;55.018;73.536;2024-02-04T13:06:16;4.00;3.33;0.00
65360;PMS5003;51958;55.018;73.536;2024-02-04T13:09:17;3.50;2.00;0.00
65360;PMS5003;51958;55.018;73.536;2024-02-04T13:12:35;4.00;3.00;0.00
65360;PMS5003;51958;55.018;73.536;2024-02-04T13:15:40;3.50;3.00;0.00
65360;PMS5003;51958;55.018;73.536;2024-02-04T13:18:52;5.00;4.00;0.00
65360;PMS5003;51958;55.018;73.536;2024-02-04T13:21:54;4.00;3.00;2.00
65360;PMS5003;51958;55.018;73.536;2024-02-04T13:25:15;5.00;4.00;1.00
65360;PMS5003;51958;55.018;73.536;2024-02-04T13:28:36;4.00;3.00;1.00
65360;PMS5003;51958;55.018;73.536;2024-02-04T13:31:39;7.00;7.00;4.00
65360;PMS5003;51958;55.018;73.536;2024-02-04T13:34:42;10.00;6.00;2.00
65360;PMS5003;51958;55.018;73.536;2024-02-04T13:37:46;7.00;7.00;2.00
65360;PMS5003;51958;55.018;73.536;2024-02-04T13:41:08;4.50;3.00;1.00
65360;PMS5003;51958;55.018;73.536;2024-02-04T13:44:10;6.00;4.00;2.00
65360;PMS5003;51958;55.018;73.536;2024-02-04T13:47:13;5.00;4.00;2.00
65360;PMS5003;51958;55.018;73.536;2024-02-04T13:50:15;5.50;5.50;2.00
65360;PMS5003;51958;55.018;73.536;2024-02-04T13:53:17;10.50;7.50;3.00
65360;PMS5003;51958;55.018;73.536;2024-02-04T13:56:36;10.00;8.00;3.00
65360;PMS5003;51958;55.018;73.536;2024-02-04T13:59:37;9.00;4.00;2.00
65360;PMS5003;51958;55.018;73.536;2024-02-04T14:02:39;7.00;5.00;3.00
65360;PMS5003;51958;55.018;73.536;2024-02-04T14:05:42;7.00;7.00;2.00
65360;PMS5003;51958;55.018;73.536;2024-02-04T14:08:43;7.00;7.00;3.00
65360;PMS5003;51958;55.018;73.536;2024-02-04T14:11:45;7.00;4.50;2.00
65360;PMS5003;51958;55.018;73.536;2024-02-04T14:14:46;8.00;6.00;2.00
65360;PMS5003;51958;55.018;73.536;2024-02-04T14:17:47;4.50;4.00;2.00
65360;PMS5003;51958;55.018;73.536;2024-02-04T14:20:48;4.00;4.00;2.00
65360;PMS5003;51958;55.018;73.536;2024-02-04T14:23:49;5.00;5.00;3.00
65360;PMS5003;51958;55.018;73.536;2024-02-04T14:26:57;7.00;7.00;3.00
65360;PMS5003;51958;55.018;73.536;2024-02-04T14:30:03;7.00;7.00;2.00
65360;PMS5003;51958;55.018;73.536;2024-02-04T14:33:05;6.00;5.00;2.00
65360;PMS5003;51958;55.018;73.536;2024-02-04T14:36:07;6.00;5.00;2.00
65360;PMS5003;51958;55.018;73.536;2024-02-04T14:39:08;4.00;4.00;1.00
65360;PMS5003;51958;55.018;73.536;2024-02-04T14:42:09;3.00;3.00;1.00
65360;PMS5003;51958;55.018;73.536;2024-02-04T14:45:11;2.00;2.00;0.00
65360;PMS5003;51958;55.018;73.536;2024-02-04T14:48:13;2.50;2.00;0.00
65360;PMS5003;51958;55.018;73.536;2024-02-04T14:51:14;3.00;3.00;0.00
65360;PMS5003;51958;55.018;73.536;2024-02-04T14:54:15;5.33;5.00;1.67
65360;PMS5003;51958;55.018;73.536;2024-02-04T14:57:36;11.00;9.00;4.00
65360;PMS5003;51958;55.018;73.536;2024-02-04T15:00:38;12.00;11.00;4.00
65360;PMS5003;51958;55.018;73.536;2024-02-04T15:03:44;13.50;11.00;4.00
65360;PMS5003;51958;55.018;73.536;2024-02-04T15:06:46;13.33;11.00;4.00
65360;PMS5003;51958;55.018;73.536;2024-02-04T15:09:47;17.67;15.33;6.33
65360;PMS5003;51958;55.018;73.536;2024-02-04T15:12:51;19.00;16.67;8.00
65360;PMS5003;51958;55.018;73.536;2024-02-04T15:15:55;18.00;15.00;6.00
65360;PMS5003;51958;55.018;73.536;2024-02-04T15:18:56;15.00;14.00;4.00
65360;PMS5003;51958;55.018;73.536;2024-02-04T15:21:58;13.00;9.00;2.00
65360;PMS5003;51958;55.018;73.536;2024-02-04T15:24:59;6.00;4.00;2.00
65360;PMS5003;51958;55.018;73.536;2024-02-04T15:28:01;5.00;4.00;2.00
65360;PMS5003;51958;55.018;73.536;2024-02-04T15:31:03;5.00;3.50;1.00
65360;PMS5003;51958;55.018;73.536;2024-02-04T15:34:05;4.25;3.00;1.75
65360;PMS5003;51958;55.018;73.536;2024-02-04T15:37:09;3.00;2.00;0.00
65360;PMS5003;51958;55.018;73.536;2024-02-04T15:40:11;4.50;3.00;0.00
65360;PMS5003;51958;55.018;73.536;2024-02-04T15:43:12;4.00;4.00;1.00
65360;PMS5003;51958;55.018;73.536;2024-02-04T15:46:13;7.00;4.00;2.00
65360;PMS5003;51958;55.018;73.536;2024-02-04T15:49:14;4.00;4.00;2.00
65360;PMS5003;51958;55.018;73.536;2024-02-04T15:52:19;4.00;3.00;0.00
65360;PMS5003;51958;55.018;73.536;2024-02-04T15:55:21;5.00;4.00;1.00
65360;PMS5003;51958;55.018;73.536;2024-02-04T15:58:23;4.00;4.00;2.00
65360;PMS5003;51958;55.018;73.536;2024-02-04T16:01:26;4.00;4.00;2.00
65360;PMS5003;51958;55.018;73.536;2024-02-04T16:04:28;4.00;4.00;1.33
65360;PMS5003;51958;55.018;73.536;2024-02-04T16:07:30;4.00;4.00;2.00
65360;PMS5003;51958;55.018;73.536;2024-02-04T16:10:32;9.50;9.00;4.00
65360;PMS5003;51958;55.018;73.536;2024-02-04T16:13:33;11.50;9.00;4.00
65360;PMS5003;51958;55.018;73.536;2024-02-04T16:16:35;10.50;6.50;2.00
65360;PMS5003;51958;55.018;73.536;2024-02-04T16:19:39;7.00;5.50;2.00
65360;PMS5003;51958;55.018;73.536;2024-02-04T16:22:40;12.00;10.00;4.00
65360;PMS5003;51958;55.018;73.536;2024-02-04T16:25:41;12.00;10.00;3.00
65360;PMS5003;51958;55.018;73.536;2024-02-04T16:28:42;9.00;7.00;3.00
65360;PMS5003;51958;55.018;73.536;2024-02-04T16:31:44;8.00;6.00;3.00
65360;PMS5003;51958;55.018;73.536;2024-02-04T16:34:45;6.00;5.00;2.00
65360;PMS5003;51958;55.018;73.536;2024-02-04T16:37:46;7.00;5.00;2.00
65360;PMS5003;51958;55.018;73.536;2024-02-04T16:40:47;8.50;7.50;2.00
65360;PMS5003;51958;55.018;73.536;2024-02-04T16:43:48;9.00;8.00;2.00
65360;PMS5003;51958;55.018;73.536;2024-02-04T16:46:50;8.00;7.00;3.00
65360;PMS5003;51958;55.018;73.536;2024-02-04T16:49:51;5.00;4.00;2.00
65360;PMS5003;51958;55.018;73.536;2024-02-04T16:52:52;10.00;6.00;3.50
65360;PMS5003;51958;55.018;73.536;2024-02-04T16:55:53;6.50;4.00;2.00
65360;PMS5003;51958;55.018;73.536;2024-02-04T16:58:54;9.00;6.00;2.50
65360;PMS5003;51958;55.018;73.536;2024-02-04T17:01:56;8.00;5.00;3.00
65360;PMS5003;51958;55.018;73.536;2024-02-04T17:04:57;6.33;4.00;2.00
65360;PMS5003;51958;55.018;73.536;2024-02-04T17:08:01;5.00;4.00;1.00
65360;PMS5003;51958;55.018;73.536;2024-02-04T17:11:05;4.00;2.67;1.00
65360;PMS5003;51958;55.018;73.536;2024-02-04T17:14:06;4.00;3.00;1.00
65360;PMS5003;51958;55.018;73.536;2024-02-04T17:17:12;9.33;8.00;3.00
65360;PMS5003;51958;55.018;73.536;2024-02-04T17:20:14;9.00;5.00;2.00
65360;PMS5003;51958;55.018;73.536;2024-02-04T17:23:22;4.00;3.00;0.00
65360;PMS5003;51958;55.018;73.536;2024-02-04T17:26:27;3.50;2.00;0.00
65360;PMS5003;51958;55.018;73.536;2024-02-04T17:29:29;4.00;2.00;0.00
65360;PMS5003;51958;55.018;73.536;2024-02-04T17:32:30;2.33;2.33;0.33
65360;PMS5003;51958;55.018;73.536;2024-02-04T17:35:32;1.00;1.00;0.00
65360;PMS5003;51958;55.018;73.536;2024-02-04T17:38:33;2.00;2.00;0.00
65360;PMS5003;51958;55.018;73.536;2024-02-04T17:41:34;2.00;2.00;0.00
65360;PMS5003;51958;55.018;73.536;2024-02-04T17:44:36;1.00;1.00;0.00
65360;PMS5003;51958;55.018;73.536;2024-02-04T17:47:38;2.00;2.00;0.00
65360;PMS5003;51958;55.018;73.536;2024-02-04T17:50:42;2.00;2.00;0.00
65360;PMS5003;51958;55.018;73.536;2024-02-04T17:53:43;3.00;2.00;0.00
65360;PMS5003;51958;55.018;73.536;2024-02-04T17:56:45;3.00;3.00;0.00
65360;PMS5003;51958;55.018;73.536;2024-02-04T17:59:47;2.33;2.33;0.00
65360;PMS5003;51958;55.018;73.536;2024-02-04T18:02:48;3.00;2.00;1.00
65360;PMS5003;51958;55.018;73.536;2024-02-04T18:05:49;4.00;4.00;1.00
65360;PMS5003;51958;55.018;73.536;2024-02-04T18:08:50;3.00;3.00;1.00
65360;PMS5003;51958;55.018;73.536;2024-02-04T18:11:52;2.00;2.00;1.00
65360;PMS5003;51958;55.018;73.536;2024-02-04T18:14:53;2.00;2.00;0.00
65360;PMS5003;51958;55.018;73.536;2024-02-04T18:17:57;1.00;1.00;0.00
65360;PMS5003;51958;55.018;73.536;2024-02-04T18:21:00;2.00;1.00;0.00
65360;PMS5003;51958;55.018;73.536;2024-02-04T18:24:01;2.00;1.33;0.00
65360;PMS5003;51958;55.018;73.536;2024-02-04T18:27:04;2.00;2.00;0.00
65360;PMS5003;51958;55.018;73.536;2024-02-04T18:30:07;2.00;1.00;0.00
65360;PMS5003;51958;55.018;73.536;2024-02-04T18:33:08;2.00;2.00;0.00
65360;PMS5003;51958;55.018;73.536;2024-02-04T18:36:10;2.00;2.00;0.00
65360;PMS5003;51958;55.018;73.536;2024-02-04T18:39:11;2.67;2.00;0.00
65360;PMS5003;51958;55.018;73.536;2024-02-04T18:42:14;3.00;2.00;0.00
65360;PMS5003;51958;55.018;73.536;2024-02-04T18:45:16;2.00;2.00;0.00
65360;PMS5003;51958;55.018;73.536;2024-02-04T18:48:17;2.00;1.33;0.00
65360;PMS5003;51958;55.018;73.536;2024-02-04T18:51:18;3.00;2.00;0.00
65360;PMS5003;51958;55.018;73.536;2024-02-04T18:54:19;3.00;2.00;0.00
65360;PMS5003;51958;55.018;73.536;2024-02-04T18:57:22;2.00;1.00;0.00
65360;PMS5003;51958;55.018;73.536;2024-02-04T19:00:23;2.00;2.00;0.00
65360;PMS5003;51958;55.018;73.536;2024-02-04T19:03:25;1.00;1.00;0.00
65360;PMS5003;51958;55.018;73.536;2024-02-04T19:06:27;1.00;0.00;0.00
65360;PMS5003;51958;55.018;73.536;2024-02-04T19:09:29;2.67;2.67;0.00
65360;PMS5003;51958;55.018;73.536;2024-02-04T19:12:31;1.33;1.33;0.00
65360;PMS5003;51958;55.018;73.536;2024-02-04T19:15:32;0.33;0.33;0.00
65360;PMS5003;51958;55.018;73.536;2024-02-04T19:18:33;0.33;0.00;0.00
65360;PMS5003;51958;55.018;73.536;2024-02-04T19:21:41;0.00;0.00;0.00
65360;PMS5003;51958;55.018;73.536;2024-02-04T19:24:42;2.00;1.00;0.00
65360;PMS5003;51958;55.018;73.536;2024-02-04T19:30:48;1.00;0.00;0.00
65360;PMS5003;51958;55.018;73.536;2024-02-04T19:33:49;0.67;0.33;0.00
65360;PMS5003;51958;55.018;73.536;2024-02-04T19:36:51;0.67;0.00;0.00
65360;PMS5003;51958;55.018;73.536;2024-02-04T19:39:52;0.00;0.00;0.00
65360;PMS5003;51958;55.018;73.536;2024-02-04T19:42:55;2.00;0.67;0.00
65360;PMS5003;51958;55.018;73.536;2024-02-04T19:45:56;2.33;2.00;0.00
65360;PMS5003;51958;55.018;73.536;2024-02-04T19:48:57;3.33;2.33;0.00
65360;PMS5003;51958;55.018;73.536;2024-02-04T19:51:59;2.00;2.00;0.00